createdAt,value
2018-02-09T00:00:37.240Z,98199.25
2018-02-09T00:01:40.453Z,98199.95
2018-02-09T00:02:43.343Z,98195.17
2018-02-09T00:03:46.238Z,98196.62
2018-02-09T00:04:49.188Z,98193.98
2018-02-09T00:05:52.204Z,98194.00
2018-02-09T00:06:55.156Z,98195.65
2018-02-09T00:07:58.421Z,98188.50
2018-02-09T00:09:01.368Z,98192.82
2018-02-09T00:10:04.305Z,98187.17
2018-02-09T00:11:07.240Z,98185.61
2018-02-09T00:12:10.211Z,98186.23
2018-02-09T00:13:13.173Z,98190.48
2018-02-09T00:14:16.138Z,98191.46
2018-02-09T00:15:19.081Z,98191.30
2018-02-09T00:16:21.981Z,98187.80
2018-02-09T00:17:24.927Z,98183.06
2018-02-09T00:18:27.836Z,98186.02
2018-02-09T00:19:30.997Z,98181.63
2018-02-09T00:20:33.920Z,98178.87
2018-02-09T00:21:36.846Z,98177.47
2018-02-09T00:22:39.808Z,98173.79
2018-02-09T00:23:42.772Z,98173.04
2018-02-09T00:24:45.700Z,98170.84
2018-02-09T00:25:48.858Z,98171.67
2018-02-09T00:26:51.782Z,98178.69
2018-02-09T00:27:54.645Z,98176.88
2018-02-09T00:28:57.512Z,98177.27
2018-02-09T00:30:00.396Z,98181.23
2018-02-09T00:31:03.314Z,98179.51
2018-02-09T00:32:06.558Z,98176.61
2018-02-09T00:33:09.487Z,98178.10
2018-02-09T00:34:12.462Z,98178.14
2018-02-09T00:35:15.400Z,98172.81
2018-02-09T00:36:18.359Z,98170.97
2018-02-09T00:37:21.230Z,98169.56
2018-02-09T00:38:24.443Z,98171.13
2018-02-09T00:39:27.407Z,98176.80
2018-02-09T00:40:30.291Z,98174.38
2018-02-09T00:41:33.168Z,98171.70
2018-02-09T00:42:36.016Z,98169.08
2018-02-09T00:43:38.869Z,98168.42
2018-02-09T00:44:42.015Z,98163.41
2018-02-09T00:45:44.951Z,98168.10
2018-02-09T00:46:47.815Z,98167.56
2018-02-09T00:47:50.686Z,98163.64
2018-02-09T00:48:53.584Z,98169.41
2018-02-09T00:49:56.457Z,98168.62
2018-02-09T00:50:59.655Z,98169.28
2018-02-09T00:52:02.589Z,98168.34
2018-02-09T00:53:05.548Z,98170.03
2018-02-09T00:54:08.517Z,98171.28
2018-02-09T00:55:11.516Z,98169.36
2018-02-09T00:56:14.457Z,98165.64
2018-02-09T00:57:17.696Z,98169.83
2018-02-09T00:58:20.652Z,98165.79
2018-02-09T00:59:23.596Z,98170.23
2018-02-09T01:00:26.634Z,98162.73
2018-02-09T01:01:29.577Z,98167.83
2018-02-09T01:02:32.557Z,98164.30
2018-02-09T01:03:35.792Z,98164.03
2018-02-09T01:04:38.712Z,98162.90
2018-02-09T01:05:41.651Z,98154.67
2018-02-09T01:06:44.575Z,98155.56
2018-02-09T01:07:47.565Z,98153.17
2018-02-09T01:08:50.480Z,98153.86
2018-02-09T01:09:53.775Z,98160.75
2018-02-09T01:10:56.737Z,98157.25
2018-02-09T01:11:59.668Z,98156.76
2018-02-09T01:13:02.623Z,98156.77
2018-02-09T01:14:05.568Z,98153.55
2018-02-09T01:15:08.496Z,98150.19
2018-02-09T01:16:11.884Z,98147.83
2018-02-09T01:17:14.879Z,98147.91
2018-02-09T01:18:17.840Z,98151.98
2018-02-09T01:19:20.822Z,98146.11
2018-02-09T01:20:23.744Z,98142.77
2018-02-09T01:21:26.710Z,98146.05
2018-02-09T01:22:29.957Z,98149.89
2018-02-09T01:23:32.923Z,98145.58
2018-02-09T01:24:35.885Z,98145.42
2018-02-09T01:25:38.818Z,98147.15
2018-02-09T01:26:41.757Z,98142.69
2018-02-09T01:27:44.719Z,98145.50
2018-02-09T01:28:47.993Z,98147.58
2018-02-09T01:29:50.911Z,98142.13
2018-02-09T01:30:53.850Z,98142.29
2018-02-09T01:31:56.848Z,98145.63
2018-02-09T01:32:59.795Z,98140.94
2018-02-09T01:34:02.768Z,98141.64
2018-02-09T01:35:05.975Z,98137.75
2018-02-09T01:36:08.917Z,98137.67
2018-02-09T01:37:11.878Z,98137.52
2018-02-09T01:38:14.796Z,98131.73
2018-02-09T01:39:17.758Z,98135.41
2018-02-09T01:40:20.784Z,98126.95
2018-02-09T01:41:24.012Z,98126.11
2018-02-09T01:42:26.965Z,98125.77
2018-02-09T01:43:29.843Z,98122.56
2018-02-09T01:44:32.741Z,98130.70
2018-02-09T01:45:35.712Z,98127.28
2018-02-09T01:46:38.616Z,98130.10
2018-02-09T01:47:41.762Z,98129.38
2018-02-09T01:48:44.696Z,98126.37
2018-02-09T01:49:47.635Z,98123.86
2018-02-09T01:50:50.597Z,98128.05
2018-02-09T01:51:53.523Z,98127.10
2018-02-09T01:52:56.441Z,98130.05
2018-02-09T01:53:59.695Z,98131.70
2018-02-09T01:55:02.602Z,98127.16
2018-02-09T01:56:05.552Z,98132.25
2018-02-09T01:57:08.506Z,98128.48
2018-02-09T01:58:11.449Z,98127.31
2018-02-09T01:59:14.392Z,98135.16
2018-02-09T02:00:17.651Z,98133.63
2018-02-09T02:01:20.596Z,98130.60
2018-02-09T02:02:23.493Z,98127.02
2018-02-09T02:03:26.414Z,98133.42
2018-02-09T02:04:29.314Z,98127.94
2018-02-09T02:05:32.255Z,98134.52
2018-02-09T02:06:35.425Z,98136.63
2018-02-09T02:07:38.308Z,98130.05
2018-02-09T02:08:41.194Z,98135.27
2018-02-09T02:09:44.090Z,98137.45
2018-02-09T02:10:46.962Z,98134.77
2018-02-09T02:11:49.852Z,98131.38
2018-02-09T02:12:53.012Z,98130.05
2018-02-09T02:13:55.907Z,98125.14
2018-02-09T02:14:58.837Z,98128.59
2018-02-09T02:16:01.807Z,98127.86
2018-02-09T02:17:04.916Z,98127.70
2018-02-09T02:18:07.851Z,98113.69
2018-02-09T02:19:11.087Z,98124.05
2018-02-09T02:20:14.048Z,98121.39
2018-02-09T02:21:17.068Z,98124.48
2018-02-09T02:22:19.998Z,98119.10
2018-02-09T02:23:22.949Z,98120.52
2018-02-09T02:24:25.795Z,98119.57
2018-02-09T02:25:28.966Z,98113.77
2018-02-09T02:26:31.838Z,98108.67
2018-02-09T02:27:34.757Z,98108.61
2018-02-09T02:28:37.654Z,98112.27
2018-02-09T02:29:40.537Z,98108.86
2018-02-09T02:30:43.427Z,98107.16
2018-02-09T02:31:46.607Z,98103.95
2018-02-09T02:32:50.254Z,98109.59
2018-02-09T02:33:53.180Z,98106.53
2018-02-09T02:34:56.113Z,98103.48
2018-02-09T02:35:59.046Z,98106.85
2018-02-09T02:37:02.018Z,98101.55
2018-02-09T02:38:04.987Z,98104.30
2018-02-09T02:39:07.944Z,98108.28
2018-02-09T02:40:10.941Z,98096.86
2018-02-09T02:41:13.898Z,98099.30
2018-02-09T02:42:16.840Z,98102.02
2018-02-09T02:43:20.083Z,98093.87
2018-02-09T02:44:22.950Z,98090.23
2018-02-09T02:45:25.865Z,98096.79
2018-02-09T02:46:28.732Z,98093.72
2018-02-09T02:47:31.715Z,98090.30
2018-02-09T02:48:34.672Z,98085.99
2018-02-09T02:49:37.888Z,98082.39
2018-02-09T02:50:40.823Z,98081.77
2018-02-09T02:51:43.745Z,98082.63
2018-02-09T02:52:46.706Z,98083.47
2018-02-09T02:53:49.710Z,98076.81
2018-02-09T02:54:52.646Z,98082.47
2018-02-09T02:55:55.819Z,98085.11
2018-02-09T02:56:58.692Z,98081.22
2018-02-09T02:58:01.624Z,98082.68
2018-02-09T02:59:04.551Z,98077.05
2018-02-09T03:00:07.565Z,98084.88
2018-02-09T03:01:10.716Z,98073.86
2018-02-09T03:02:13.999Z,98071.80
2018-02-09T03:03:16.910Z,98068.44
2018-02-09T03:04:19.832Z,98068.83
2018-02-09T03:05:22.882Z,98067.28
2018-02-09T03:06:25.812Z,98073.79
2018-02-09T03:07:28.782Z,98067.30
2018-02-09T03:08:32.035Z,98069.17
2018-02-09T03:09:34.965Z,98073.80
2018-02-09T03:10:37.932Z,98073.16
2018-02-09T03:11:40.868Z,98064.65
2018-02-09T03:12:43.814Z,98071.69
2018-02-09T03:13:46.681Z,98062.67
2018-02-09T03:14:49.849Z,98061.97
2018-02-09T03:15:52.770Z,98063.63
2018-02-09T03:16:55.677Z,98059.17
2018-02-09T03:17:58.551Z,98059.25
2018-02-09T03:19:01.464Z,98058.23
2018-02-09T03:20:04.342Z,98058.28
2018-02-09T03:21:07.500Z,98059.61
2018-02-09T03:22:10.383Z,98057.20
2018-02-09T03:23:13.274Z,98056.02
2018-02-09T03:24:16.180Z,98051.41
2018-02-09T03:25:19.061Z,98051.24
2018-02-09T03:26:21.938Z,98055.63
2018-02-09T03:27:25.109Z,98052.42
2018-02-09T03:28:28.011Z,98046.62
2018-02-09T03:29:30.884Z,98046.86
2018-02-09T03:30:35.438Z,98048.58
2018-02-09T03:31:38.395Z,98044.72
2018-02-09T03:32:41.364Z,98040.73
2018-02-09T03:33:44.312Z,98047.62
2018-02-09T03:34:47.242Z,98039.27
2018-02-09T03:35:50.202Z,98040.83
2018-02-09T03:36:53.133Z,98039.82
2018-02-09T03:37:56.060Z,98045.14
2018-02-09T03:38:59.338Z,98042.33
2018-02-09T03:40:02.273Z,98041.02
2018-02-09T03:41:05.211Z,98043.50
2018-02-09T03:42:08.176Z,98036.80
2018-02-09T03:43:11.129Z,98038.75
2018-02-09T03:44:14.179Z,98042.49
2018-02-09T03:45:18.557Z,98041.89
2018-02-09T03:46:21.480Z,98041.72
2018-02-09T03:47:24.424Z,98044.38
2018-02-09T03:48:28.073Z,98042.66
2018-02-09T03:49:31.946Z,98041.87
2018-02-09T03:50:35.937Z,98041.33
2018-02-09T03:51:39.376Z,98045.92
2018-02-09T03:52:42.327Z,98049.44
2018-02-09T03:53:45.326Z,98050.32
2018-02-09T03:54:48.234Z,98046.09
2018-02-09T03:55:51.260Z,98044.74
2018-02-09T03:56:54.184Z,98043.63
2018-02-09T03:57:57.116Z,98044.41
2018-02-09T03:59:00.057Z,98047.23
2018-02-09T04:00:03.168Z,98044.22
2018-02-09T04:01:06.104Z,98043.59
2018-02-09T04:02:09.060Z,98051.50
2018-02-09T04:03:12.226Z,98042.50
2018-02-09T04:04:15.107Z,98046.60
2018-02-09T04:05:17.980Z,98043.78
2018-02-09T04:06:20.944Z,98050.67
2018-02-09T04:07:23.884Z,98039.95
2018-02-09T04:08:27.697Z,98040.05
2018-02-09T04:09:32.570Z,98039.34
2018-02-09T04:10:35.628Z,98044.43
2018-02-09T04:11:38.568Z,98038.41
2018-02-09T04:12:41.520Z,98039.16
2018-02-09T04:13:44.480Z,98038.77
2018-02-09T04:14:47.433Z,98032.46
2018-02-09T04:15:50.667Z,98034.08
2018-02-09T04:16:53.648Z,98031.55
2018-02-09T04:17:56.600Z,98031.81
2018-02-09T04:19:00.103Z,98033.63
2018-02-09T04:20:03.131Z,98032.61
2018-02-09T04:21:06.085Z,98026.93
2018-02-09T04:22:09.337Z,98026.23
2018-02-09T04:23:12.334Z,98027.95
2018-02-09T04:24:15.247Z,98026.25
2018-02-09T04:25:18.184Z,98027.02
2018-02-09T04:26:21.153Z,98023.89
2018-02-09T04:27:24.093Z,98027.65
2018-02-09T04:28:27.712Z,98020.00
2018-02-09T04:29:30.599Z,98025.52
2018-02-09T04:30:33.568Z,98029.53
2018-02-09T04:31:36.508Z,98023.36
2018-02-09T04:32:39.396Z,98015.45
2018-02-09T04:33:42.269Z,98017.41
2018-02-09T04:34:45.426Z,98017.17
2018-02-09T04:35:48.336Z,98017.94
2018-02-09T04:36:51.205Z,98018.50
2018-02-09T04:37:54.144Z,98014.84
2018-02-09T04:38:57.014Z,98014.84
2018-02-09T04:39:59.897Z,98008.09
2018-02-09T04:41:03.225Z,98013.88
2018-02-09T04:42:06.149Z,97999.73
2018-02-09T04:43:09.085Z,98001.45
2018-02-09T04:44:12.065Z,98001.00
2018-02-09T04:45:15.044Z,98002.24
2018-02-09T04:46:18.020Z,98000.27
2018-02-09T04:47:21.395Z,98005.14
2018-02-09T04:48:24.237Z,97999.97
2018-02-09T04:49:27.185Z,98004.50
2018-02-09T04:50:30.122Z,97998.41
2018-02-09T04:51:32.973Z,98001.07
2018-02-09T04:52:35.906Z,97992.23
2018-02-09T04:53:39.140Z,97995.66
2018-02-09T04:54:42.092Z,97992.23
2018-02-09T04:55:45.013Z,97999.02
2018-02-09T04:56:47.963Z,97989.44
2018-02-09T04:57:50.926Z,97992.16
2018-02-09T04:58:54.140Z,97990.90
2018-02-09T04:59:57.095Z,97995.03
2018-02-09T05:01:00.045Z,97993.80
2018-02-09T05:02:03.020Z,97997.70
2018-02-09T05:03:05.961Z,97990.81
2018-02-09T05:04:08.932Z,97984.11
2018-02-09T05:05:12.154Z,97993.19
2018-02-09T05:06:15.077Z,97990.83
2018-02-09T05:07:18.005Z,97985.50
2018-02-09T05:08:20.952Z,97994.75
2018-02-09T05:09:23.900Z,97993.33
2018-02-09T05:10:26.855Z,97992.23
2018-02-09T05:11:30.092Z,97995.24
2018-02-09T05:12:33.074Z,97995.25
2018-02-09T05:13:36.040Z,97994.40
2018-02-09T05:14:38.977Z,97996.08
2018-02-09T05:15:41.935Z,97992.88
2018-02-09T05:16:44.870Z,97988.48
2018-02-09T05:17:48.083Z,97990.13
2018-02-09T05:18:51.056Z,97994.19
2018-02-09T05:19:54.006Z,97987.00
2018-02-09T05:20:56.981Z,97986.25
2018-02-09T05:21:59.942Z,97983.76
2018-02-09T05:23:02.972Z,97982.22
2018-02-09T05:24:06.204Z,97990.44
2018-02-09T05:25:09.140Z,97988.72
2018-02-09T05:26:12.116Z,97986.96
2018-02-09T05:27:15.103Z,97984.38
2018-02-09T05:28:18.044Z,97982.30
2018-02-09T05:29:21.038Z,97982.70
2018-02-09T05:30:24.257Z,97975.50
2018-02-09T05:31:27.202Z,97973.70
2018-02-09T05:32:30.140Z,97972.64
2018-02-09T05:33:33.112Z,97978.75
2018-02-09T05:34:36.068Z,97975.30
2018-02-09T05:35:38.992Z,97974.48
2018-02-09T05:36:42.321Z,97974.95
2018-02-09T05:37:45.170Z,97983.43
2018-02-09T05:38:48.048Z,97979.13
2018-02-09T05:39:50.910Z,97978.34
2018-02-09T05:40:53.763Z,97974.75
2018-02-09T05:41:56.613Z,97977.36
2018-02-09T05:42:59.860Z,97981.19
2018-02-09T05:44:02.804Z,97979.36
2018-02-09T05:45:05.762Z,97976.94
2018-02-09T05:46:08.710Z,97981.70
2018-02-09T05:47:11.636Z,97975.27
2018-02-09T05:48:14.617Z,97976.67
2018-02-09T05:49:17.839Z,97978.97
2018-02-09T05:50:20.790Z,97975.40
2018-02-09T05:51:23.722Z,97980.33
2018-02-09T05:52:26.668Z,97978.34
2018-02-09T05:53:29.598Z,97976.23
2018-02-09T05:54:32.581Z,97973.31
2018-02-09T05:55:35.947Z,97971.82
2018-02-09T05:56:38.883Z,97971.51
2018-02-09T05:57:41.830Z,97979.92
2018-02-09T05:58:44.826Z,97976.52
2018-02-09T05:59:47.764Z,97974.98
2018-02-09T06:00:50.711Z,97970.60
2018-02-09T06:01:53.965Z,97975.22
2018-02-09T06:02:56.953Z,97976.55
2018-02-09T06:03:59.863Z,97974.33
2018-02-09T06:05:02.830Z,97979.25
2018-02-09T06:06:05.754Z,97980.35
2018-02-09T06:07:08.723Z,97975.08
2018-02-09T06:08:11.947Z,97979.73
2018-02-09T06:09:14.977Z,97975.38
2018-02-09T06:10:17.938Z,97983.25
2018-02-09T06:11:20.871Z,97977.61
2018-02-09T06:12:23.827Z,97973.19
2018-02-09T06:13:26.795Z,97976.69
2018-02-09T06:14:30.161Z,97975.34
2018-02-09T06:15:33.136Z,97976.66
2018-02-09T06:16:36.076Z,97979.70
2018-02-09T06:17:39.048Z,97974.93
2018-02-09T06:18:42.155Z,97975.95
2018-02-09T06:19:45.113Z,97975.14
2018-02-09T06:20:48.392Z,97971.23
2018-02-09T06:21:51.317Z,97971.94
2018-02-09T06:22:54.232Z,97970.84
2018-02-09T06:23:57.179Z,97965.64
2018-02-09T06:25:00.114Z,97963.48
2018-02-09T06:26:03.045Z,97959.48
2018-02-09T06:27:06.540Z,97963.47
2018-02-09T06:28:09.668Z,97964.38
2018-02-09T06:29:12.586Z,97968.30
2018-02-09T06:30:15.537Z,97964.61
2018-02-09T06:31:18.527Z,97965.09
2018-02-09T06:32:21.414Z,97971.38
2018-02-09T06:33:24.329Z,97964.42
2018-02-09T06:34:27.678Z,97964.93
2018-02-09T06:35:30.634Z,97968.26
2018-02-09T06:36:34.086Z,97962.42
2018-02-09T06:37:37.105Z,97961.62
2018-02-09T06:38:40.478Z,97963.55
2018-02-09T06:39:43.458Z,97968.48
2018-02-09T06:40:46.552Z,97962.14
2018-02-09T06:41:49.562Z,97965.33
2018-02-09T06:42:52.524Z,97969.09
2018-02-09T06:43:55.509Z,97964.14
2018-02-09T06:44:58.728Z,97962.66
2018-02-09T06:46:01.732Z,97965.72
2018-02-09T06:47:04.699Z,97965.74
2018-02-09T06:48:07.643Z,97971.30
2018-02-09T06:49:10.578Z,97969.44
2018-02-09T06:50:13.529Z,97972.20
2018-02-09T06:51:17.064Z,97967.75
2018-02-09T06:52:20.010Z,97962.22
2018-02-09T06:53:22.963Z,97965.67
2018-02-09T06:54:25.846Z,97963.69
2018-02-09T06:55:28.717Z,97969.10
2018-02-09T06:56:31.664Z,97965.75
2018-02-09T06:57:35.755Z,97958.63
2018-02-09T06:58:38.709Z,97954.83
2018-02-09T06:59:41.691Z,97955.05
2018-02-09T07:00:44.688Z,97957.81
2018-02-09T07:01:47.732Z,97956.48
2018-02-09T07:02:50.748Z,97955.70
2018-02-09T07:03:54.069Z,97954.69
2018-02-09T07:04:57.037Z,97951.55
2018-02-09T07:05:59.971Z,97954.00
2018-02-09T07:07:02.940Z,97954.06
2018-02-09T07:08:05.874Z,97945.83
2018-02-09T07:09:08.836Z,97950.34
2018-02-09T07:10:12.239Z,97944.28
2018-02-09T07:11:15.208Z,97948.25
2018-02-09T07:12:18.204Z,97946.34
2018-02-09T07:13:21.190Z,97943.50
2018-02-09T07:14:24.222Z,97944.11
2018-02-09T07:15:27.188Z,97938.78
2018-02-09T07:16:31.475Z,97933.55
2018-02-09T07:17:34.429Z,97936.58
2018-02-09T07:18:37.347Z,97933.48
2018-02-09T07:19:40.398Z,97937.45
2018-02-09T07:20:43.382Z,97934.16
2018-02-09T07:21:46.423Z,97930.63
2018-02-09T07:22:49.865Z,97926.24
2018-02-09T07:23:53.486Z,97930.93
2018-02-09T07:24:56.537Z,97924.03
2018-02-09T07:25:59.489Z,97925.23
2018-02-09T07:27:04.116Z,97926.27
2018-02-09T07:28:08.287Z,97924.77
2018-02-09T07:29:11.836Z,97922.42
2018-02-09T07:30:14.815Z,97922.29
2018-02-09T07:31:17.792Z,97922.05
2018-02-09T07:32:20.752Z,97924.45
2018-02-09T07:33:23.716Z,97924.77
2018-02-09T07:34:26.668Z,97918.69
2018-02-09T07:35:30.117Z,97913.37
2018-02-09T07:36:33.099Z,97916.17
2018-02-09T07:37:36.059Z,97929.69
2018-02-09T07:38:39.023Z,97922.72
2018-02-09T07:39:42.078Z,97928.50
2018-02-09T07:40:45.089Z,97929.91
2018-02-09T07:41:48.612Z,97933.16
2018-02-09T07:42:51.562Z,97932.62
2018-02-09T07:43:54.504Z,97933.97
2018-02-09T07:44:57.490Z,97936.28
2018-02-09T07:46:00.496Z,97932.18
2018-02-09T07:47:03.503Z,97931.16
2018-02-09T07:48:06.795Z,97933.34
2018-02-09T07:49:09.835Z,97934.32
2018-02-09T07:50:12.785Z,97932.79
2018-02-09T07:51:15.742Z,97930.84
2018-02-09T07:52:18.707Z,97932.40
2018-02-09T07:53:21.676Z,97926.01
2018-02-09T07:54:24.911Z,97927.75
2018-02-09T07:55:28.008Z,97925.30
2018-02-09T07:56:30.945Z,97924.47
2018-02-09T07:57:33.887Z,97919.09
2018-02-09T07:58:36.861Z,97924.64
2018-02-09T07:59:39.856Z,97924.13
2018-02-09T08:00:43.091Z,97924.14
2018-02-09T08:01:46.049Z,97921.81
2018-02-09T08:02:48.943Z,97920.18
2018-02-09T08:03:51.843Z,97913.23
2018-02-09T08:04:54.824Z,97914.74
2018-02-09T08:05:57.778Z,97920.56
2018-02-09T08:07:01.065Z,97911.10
2018-02-09T08:08:04.018Z,97917.50
2018-02-09T08:09:06.975Z,97913.89
2018-02-09T08:10:09.921Z,97916.38
2018-02-09T08:11:12.900Z,97915.78
2018-02-09T08:12:15.856Z,97919.31
2018-02-09T08:13:19.069Z,97914.13
2018-02-09T08:14:22.025Z,97912.64
2018-02-09T08:15:24.976Z,97912.02
2018-02-09T08:16:27.959Z,97919.13
2018-02-09T08:17:30.958Z,97921.64
2018-02-09T08:18:33.889Z,97920.87
2018-02-09T08:19:37.134Z,97919.87
2018-02-09T08:20:40.078Z,97924.09
2018-02-09T08:21:42.981Z,97923.16
2018-02-09T08:22:45.874Z,97922.53
2018-02-09T08:23:48.757Z,97925.42
2018-02-09T08:24:51.742Z,97922.97
2018-02-09T08:25:55.135Z,97923.13
2018-02-09T08:26:58.011Z,97925.06
2018-02-09T08:28:00.925Z,97919.89
2018-02-09T08:29:04.328Z,97925.62
2018-02-09T08:30:07.325Z,97927.20
2018-02-09T08:31:10.244Z,97927.20
2018-02-09T08:32:13.590Z,97924.70
2018-02-09T08:33:16.935Z,97924.59
2018-02-09T08:34:19.979Z,97924.82
2018-02-09T08:35:22.922Z,97922.91
2018-02-09T08:36:25.921Z,97925.59
2018-02-09T08:37:28.884Z,97927.21
2018-02-09T08:38:32.141Z,97924.20
2018-02-09T08:39:35.090Z,97927.98
2018-02-09T08:40:38.073Z,97913.56
2018-02-09T08:41:41.037Z,97916.12
2018-02-09T08:42:44.009Z,97913.45
2018-02-09T08:43:47.003Z,97916.30
2018-02-09T08:44:50.359Z,97908.17
2018-02-09T08:45:53.309Z,97913.69
2018-02-09T08:46:56.253Z,97911.74
2018-02-09T08:47:59.214Z,97909.62
2018-02-09T08:49:02.230Z,97903.02
2018-02-09T08:50:05.191Z,97898.02
2018-02-09T08:51:08.621Z,97904.95
2018-02-09T08:52:11.629Z,97898.41
2018-02-09T08:53:14.561Z,97891.08
2018-02-09T08:54:17.556Z,97902.45
2018-02-09T08:55:20.515Z,97906.02
2018-02-09T08:56:23.459Z,97902.56
2018-02-09T08:57:26.921Z,97896.29
2018-02-09T08:58:30.390Z,97891.80
2018-02-09T08:59:33.276Z,97887.90
2018-02-09T09:00:36.413Z,97889.80
2018-02-09T09:01:39.384Z,97883.55
2018-02-09T09:02:42.336Z,97887.41
2018-02-09T09:03:45.317Z,97889.92
2018-02-09T09:04:48.566Z,97885.73
2018-02-09T09:05:51.601Z,97880.65
2018-02-09T09:06:54.582Z,97879.59
2018-02-09T09:07:57.615Z,97883.66
2018-02-09T09:09:00.614Z,97881.10
2018-02-09T09:10:03.647Z,97878.94
2018-02-09T09:11:06.610Z,97882.89
2018-02-09T09:12:09.568Z,97881.77
2018-02-09T09:13:12.509Z,97876.54
2018-02-09T09:14:15.892Z,97880.48
2018-02-09T09:15:18.858Z,97878.08
2018-02-09T09:16:21.809Z,97875.67
2018-02-09T09:17:24.795Z,97885.33
2018-02-09T09:18:27.739Z,97881.70
2018-02-09T09:19:30.752Z,97886.21
2018-02-09T09:20:34.189Z,97883.58
2018-02-09T09:21:37.232Z,97879.42
2018-02-09T09:22:40.260Z,97882.66
2018-02-09T09:23:43.200Z,97881.65
2018-02-09T09:24:46.250Z,97878.59
2018-02-09T09:25:49.195Z,97878.59
2018-02-09T09:26:52.484Z,97874.08
2018-02-09T09:27:55.428Z,97881.14
2018-02-09T09:28:58.488Z,97875.02
2018-02-09T09:30:01.440Z,97877.69
2018-02-09T09:31:04.429Z,97873.12
2018-02-09T09:32:07.924Z,97872.63
2018-02-09T09:33:11.371Z,97869.63
2018-02-09T09:34:14.347Z,97873.06
2018-02-09T09:35:17.334Z,97877.57
2018-02-09T09:36:20.263Z,97871.09
2018-02-09T09:37:23.219Z,97872.33
2018-02-09T09:38:26.261Z,97866.95
2018-02-09T09:39:29.715Z,97870.82
2018-02-09T09:40:32.697Z,97868.70
2018-02-09T09:41:35.743Z,97865.98
2018-02-09T09:42:38.803Z,97866.59
2018-02-09T09:43:41.832Z,97870.73
2018-02-09T09:44:45.423Z,97863.27
2018-02-09T09:45:49.007Z,97863.09
2018-02-09T09:46:51.989Z,97866.27
2018-02-09T09:47:54.920Z,97861.63
2018-02-09T09:48:57.933Z,97871.30
2018-02-09T09:50:00.885Z,97865.69
2018-02-09T09:51:03.818Z,97864.78
2018-02-09T09:52:07.122Z,97854.80
2018-02-09T09:53:10.035Z,97860.19
2018-02-09T09:54:12.975Z,97853.08
2018-02-09T09:55:15.878Z,97858.81
2018-02-09T09:56:18.831Z,97857.08
2018-02-09T09:57:21.878Z,97857.63
2018-02-09T09:58:25.425Z,97858.52
2018-02-09T09:59:28.461Z,97855.19
2018-02-09T10:00:31.491Z,97860.28
2018-02-09T10:01:34.456Z,97857.44
2018-02-09T10:02:37.453Z,97856.08
2018-02-09T10:03:40.403Z,97850.91
2018-02-09T10:04:43.774Z,97855.52
2018-02-09T10:05:46.810Z,97852.78
2018-02-09T10:06:49.756Z,97852.52
2018-02-09T10:07:52.748Z,97856.97
2018-02-09T10:08:55.719Z,97850.48
2018-02-09T10:09:58.680Z,97853.02
2018-02-09T10:11:02.061Z,97846.37
2018-02-09T10:12:05.038Z,97849.41
2018-02-09T10:13:07.971Z,97845.87
2018-02-09T10:14:10.960Z,97854.14
2018-02-09T10:15:13.943Z,97845.35
2018-02-09T10:16:16.946Z,97854.42
2018-02-09T10:17:20.286Z,97852.70
2018-02-09T10:18:23.267Z,97853.23
2018-02-09T10:19:26.482Z,97858.75
2018-02-09T10:20:29.456Z,97846.14
2018-02-09T10:21:32.463Z,97846.11
2018-02-09T10:22:35.432Z,97847.96
2018-02-09T10:23:38.790Z,97841.84
2018-02-09T10:24:41.657Z,97842.17
2018-02-09T10:25:44.647Z,97841.73
2018-02-09T10:26:47.589Z,97839.70
2018-02-09T10:27:50.586Z,97833.95
2018-02-09T10:28:53.553Z,97844.97
2018-02-09T10:29:56.577Z,97836.69
2018-02-09T10:30:59.535Z,97836.22
2018-02-09T10:32:02.535Z,97841.19
2018-02-09T10:33:05.520Z,97851.17
2018-02-09T10:34:08.569Z,97838.93
2018-02-09T10:35:11.449Z,97844.20
2018-02-09T10:36:14.837Z,97846.45
2018-02-09T10:37:17.809Z,97832.96
2018-02-09T10:38:20.729Z,97836.94
2018-02-09T10:39:23.583Z,97832.83
2018-02-09T10:40:26.628Z,97843.86
2018-02-09T10:41:29.591Z,97834.82
2018-02-09T10:42:32.562Z,97823.16
2018-02-09T10:43:35.564Z,97836.22
2018-02-09T10:44:38.551Z,97830.16
2018-02-09T10:45:41.553Z,97834.69
2018-02-09T10:46:44.507Z,97833.78
2018-02-09T10:47:47.967Z,97831.80
2018-02-09T10:48:50.915Z,97822.68
2018-02-09T10:49:53.873Z,97827.30
2018-02-09T10:50:56.858Z,97826.75
2018-02-09T10:51:59.840Z,97821.43
2018-02-09T10:53:02.853Z,97818.91
2018-02-09T10:54:06.243Z,97818.91
2018-02-09T10:55:09.203Z,97816.37
2018-02-09T10:56:12.202Z,97814.77
2018-02-09T10:57:15.192Z,97804.48
2018-02-09T10:58:18.287Z,97820.78
2018-02-09T10:59:21.232Z,97814.30
2018-02-09T11:00:28.525Z,97807.03
2018-02-09T11:01:35.376Z,97805.37
2018-02-09T11:02:38.361Z,97800.02
2018-02-09T11:03:41.768Z,97809.48
2018-02-09T11:04:44.786Z,97798.59
2018-02-09T11:05:47.768Z,97799.28
2018-02-09T11:06:51.180Z,97799.58
2018-02-09T11:07:54.168Z,97798.27
2018-02-09T11:08:57.123Z,97794.80
2018-02-09T11:10:00.397Z,97792.91
2018-02-09T11:11:05.312Z,97794.09
2018-02-09T11:12:11.381Z,97791.02
2018-02-09T11:13:16.816Z,97791.63
2018-02-09T11:14:19.783Z,97790.92
2018-02-09T11:15:22.735Z,97796.50
2018-02-09T11:16:25.705Z,97798.89
2018-02-09T11:17:29.008Z,97787.70
2018-02-09T11:18:32.036Z,97795.23
2018-02-09T11:19:35.437Z,97782.43
2018-02-09T11:20:38.411Z,97795.81
2018-02-09T11:21:41.409Z,97783.03
2018-02-09T11:22:44.399Z,97788.94
2018-02-09T11:23:47.397Z,97779.03
2018-02-09T11:24:50.388Z,97792.00
2018-02-09T11:25:53.927Z,97783.17
2018-02-09T11:26:56.945Z,97779.32
2018-02-09T11:27:59.948Z,97781.87
2018-02-09T11:29:02.897Z,97775.14
2018-02-09T11:30:05.933Z,97785.69
2018-02-09T11:31:08.917Z,97779.72
2018-02-09T11:32:12.021Z,97781.03
2018-02-09T11:33:15.046Z,97774.39
2018-02-09T11:34:17.985Z,97775.41
2018-02-09T11:35:20.982Z,97778.77
2018-02-09T11:36:24.047Z,97783.01
2018-02-09T11:37:27.391Z,97769.20
2018-02-09T11:38:30.363Z,97774.17
2018-02-09T11:39:33.300Z,97772.45
2018-02-09T11:40:36.262Z,97768.64
2018-02-09T11:41:39.247Z,97770.20
2018-02-09T11:42:42.381Z,97770.64
2018-02-09T11:43:45.843Z,97772.62
2018-02-09T11:44:48.839Z,97774.38
2018-02-09T11:45:51.837Z,97777.31
2018-02-09T11:46:54.792Z,97777.87
2018-02-09T11:47:57.808Z,97777.19
2018-02-09T11:49:00.758Z,97771.33
2018-02-09T11:50:04.048Z,97768.09
2018-02-09T11:51:07.127Z,97766.79
2018-02-09T11:52:10.124Z,97775.02
2018-02-09T11:53:13.078Z,97778.34
2018-02-09T11:54:16.059Z,97770.99
2018-02-09T11:55:19.066Z,97776.70
2018-02-09T11:56:22.430Z,97767.91
2018-02-09T11:57:25.440Z,97774.97
2018-02-09T11:58:28.517Z,97768.76
2018-02-09T11:59:31.499Z,97772.37
2018-02-09T12:00:36.974Z,97777.10
2018-02-09T12:01:39.992Z,97772.55
2018-02-09T12:02:43.461Z,97769.69
2018-02-09T12:03:46.441Z,97775.55
2018-02-09T12:04:49.387Z,97766.51
2018-02-09T12:05:52.359Z,97775.34
2018-02-09T12:06:55.345Z,97766.86
2018-02-09T12:07:58.290Z,97777.91
2018-02-09T12:09:01.342Z,97783.45
2018-02-09T12:10:04.309Z,97797.49
2018-02-09T12:11:07.285Z,97771.79
2018-02-09T12:12:10.239Z,97781.92
2018-02-09T12:13:13.189Z,97783.47
2018-02-09T12:14:16.479Z,97774.92
2018-02-09T12:15:19.440Z,97766.59
2018-02-09T12:16:22.488Z,97780.37
2018-02-09T12:17:25.478Z,97777.27
2018-02-09T12:18:28.487Z,97772.39
2018-02-09T12:19:32.030Z,97776.99
2018-02-09T12:20:35.354Z,97775.01